Time;durP1;ratioP1;P1;durP2;ratioP2;P2;SDS_P1;SDS_P2;PMS_P1;PMS_P2;Temp;Humidity;BMP_temperature;BMP_pressure;BME280_temperature;BME280_humidity;BME280_pressure;Samples;Min_cycle;Max_cycle;Signal;HPM_P1;HPM_P2
2023/01/01 00:02:29;;;;;;;229.13;204.37;;;12.10;39.10;;;;;;10435151;28;20641;-77
2023/01/01 00:07:38;;;;;;;126.53;112.57;;;12.10;39.40;;;;;;10425903;28;20779;-77
2023/01/01 00:12:42;;;;;;;112.07;99.57;;;12.10;39.10;;;;;;10431422;28;20225;-77
2023/01/01 00:17:46;;;;;;;90.53;80.93;;;12.10;39.10;;;;;;10434092;28;20241;-77
2023/01/01 00:22:49;;;;;;;74.90;64.37;;;12.10;39.40;;;;;;10431695;28;20213;-77
2023/01/01 00:27:58;;;;;;;97.53;86.17;;;12.00;39.10;;;;;;10430424;28;20225;-77
2023/01/01 00:33:02;;;;;;;105.23;89.43;;;12.00;39.20;;;;;;10424963;28;20708;-77
2023/01/01 00:38:06;;;;;;;94.83;84.73;;;11.90;39.50;;;;;;10434469;28;20221;-77
2023/01/01 00:43:09;;;;;;;89.87;80.43;;;11.90;39.30;;;;;;10434262;28;20235;-77
2023/01/01 00:48:14;;;;;;;103.07;92.23;;;11.90;39.40;;;;;;10432228;28;20225;-77
2023/01/01 00:53:17;;;;;;;108.07;96.23;;;11.90;39.80;;;;;;10436930;28;20221;-77
2023/01/01 00:58:20;;;;;;;112.83;100.67;;;11.90;39.60;;;;;;10429805;28;20230;-77
2023/01/01 01:03:28;;;;;;;117.70;104.93;;;11.90;39.70;;;;;;10428075;28;20225;-77
2023/01/01 01:08:34;;;;;;;126.17;112.77;;;11.80;39.80;;;;;;10429669;28;20236;-77
2023/01/01 01:13:38;;;;;;;110.93;99.47;;;11.80;39.90;;;;;;10433516;28;20228;-77
2023/01/01 01:18:43;;;;;;;128.20;114.37;;;11.70;39.60;;;;;;10430531;28;20225;-77
2023/01/01 01:23:47;;;;;;;132.93;118.67;;;11.70;39.90;;;;;;10425572;28;20221;-77
2023/01/01 01:28:51;;;;;;;118.20;105.87;;;11.70;39.70;;;;;;10421384;28;20233;-77
2023/01/01 01:33:56;;;;;;;123.27;110.50;;;11.70;39.60;;;;;;10429572;28;20221;-77
2023/01/01 01:38:59;;;;;;;124.07;110.83;;;11.70;40.00;;;;;;10422266;28;20236;-77
2023/01/01 01:44:25;;;;;;;92.17;82.13;;;11.70;39.70;;;;;;10416015;28;20727;-77
2023/01/01 01:49:31;;;;;;;103.67;92.50;;;11.60;39.80;;;;;;10424364;28;20228;-77
2023/01/01 01:54:35;;;;;;;98.60;87.90;;;11.60;40.00;;;;;;10424149;28;20233;-77
2023/01/01 01:59:42;;;;;;;95.13;85.30;;;11.50;39.70;;;;;;10420612;28;20225;-78
2023/01/01 02:04:47;;;;;;;86.10;75.27;;;11.50;40.00;;;;;;10416180;28;20228;-77
2023/01/01 02:09:50;;;;;;;82.13;73.33;;;11.50;40.00;;;;;;10425911;28;20221;-77
2023/01/01 02:14:54;;;;;;;81.17;72.40;;;11.50;39.80;;;;;;10414193;28;20230;-77
2023/01/01 02:20:16;;;;;;;80.80;72.33;;;11.40;39.80;;;;;;10429755;28;20225;-77
2023/01/01 02:25:27;;;;;;;82.77;73.87;;;11.40;40.80;;;;;;10427064;28;20232;-77
2023/01/01 02:30:33;;;;;;;83.97;74.80;;;11.40;40.50;;;;;;10431275;28;20236;-77
2023/01/01 02:35:41;;;;;;;74.57;66.53;;;11.40;40.20;;;;;;10443401;28;20228;-77
2023/01/01 02:40:47;;;;;;;77.53;68.80;;;11.30;40.20;;;;;;10426129;28;20266;-77
2023/01/01 02:45:53;;;;;;;78.30;69.67;;;11.20;40.10;;;;;;10433005;28;20763;-78
2023/01/01 02:51:00;;;;;;;87.00;77.37;;;11.20;40.40;;;;;;10436503;28;20228;-76
2023/01/01 02:56:12;;;;;;;83.47;74.67;;;11.20;40.40;;;;;;10439463;28;20282;-77
2023/01/01 03:01:24;;;;;;;70.97;63.23;;;11.20;41.00;;;;;;10431486;28;20236;-77
2023/01/01 03:06:37;;;;;;;62.10;55.33;;;11.20;41.00;;;;;;10438760;28;20308;-77
2023/01/01 03:11:50;;;;;;;64.10;56.43;;;11.10;40.90;;;;;;10431098;28;20694;-77
2023/01/01 03:16:59;;;;;;;59.77;53.43;;;11.10;40.90;;;;;;10436327;28;20224;-77
2023/01/01 03:22:05;;;;;;;61.63;54.93;;;11.10;40.90;;;;;;10438733;28;20323;-77
2023/01/01 03:27:11;;;;;;;62.27;55.70;;;11.10;40.90;;;;;;10442547;28;20236;-77
2023/01/01 03:32:22;;;;;;;68.13;60.80;;;11.10;40.90;;;;;;10440575;28;20224;-77
2023/01/01 03:37:30;;;;;;;61.03;54.63;;;11.10;40.90;;;;;;10426312;28;20226;-77
2023/01/01 03:42:38;;;;;;;58.73;52.33;;;11.10;40.90;;;;;;10424499;28;21126;-77
2023/01/01 03:47:43;;;;;;;66.83;59.73;;;11.10;40.90;;;;;;10439223;28;20685;-77
2023/01/01 03:52:56;;;;;;;71.10;63.50;;;11.10;40.90;;;;;;10436516;28;20224;-77
2023/01/01 03:58:05;;;;;;;61.67;54.93;;;11.10;40.90;;;;;;10432220;28;20228;-77
2023/01/01 04:03:16;;;;;;;53.70;47.90;;;11.10;40.90;;;;;;10427977;28;20228;-77
2023/01/01 04:08:20;;;;;;;64.63;57.57;;;11.10;40.90;;;;;;10431775;28;20282;-77
2023/01/01 04:13:23;;;;;;;65.33;58.30;;;11.00;40.50;;;;;;10430071;28;20284;-77
2023/01/01 04:18:28;;;;;;;53.43;47.73;;;11.00;40.70;;;;;;10440587;28;20278;-77
2023/01/01 04:23:31;;;;;;;54.53;48.60;;;11.00;40.80;;;;;;10424996;28;20240;-77
2023/01/01 04:28:34;;;;;;;57.80;51.70;;;11.00;40.70;;;;;;10434533;28;20248;-77
2023/01/01 04:33:39;;;;;;;67.03;59.83;;;10.90;40.50;;;;;;10438976;28;20749;-77
2023/01/01 04:38:42;;;;;;;66.07;59.23;;;10.90;40.70;;;;;;10425788;28;20229;-77
2023/01/01 04:43:49;;;;;;;68.30;60.90;;;10.90;40.70;;;;;;10423394;28;20221;-77
2023/01/01 04:48:53;;;;;;;61.23;54.83;;;10.90;40.70;;;;;;10427758;28;20233;-77
2023/01/01 04:53:58;;;;;;;63.03;55.97;;;10.80;40.60;;;;;;10427244;28;20228;-77
2023/01/01 04:59:01;;;;;;;66.13;58.97;;;10.80;40.40;;;;;;10432503;28;20235;-77
2023/01/01 05:04:06;;;;;;;57.43;51.20;;;10.70;40.50;;;;;;10432586;28;20221;-77
2023/01/01 05:09:10;;;;;;;56.63;50.03;;;10.70;40.50;;;;;;10439967;28;20323;-77
2023/01/01 05:14:13;;;;;;;53.90;48.27;;;10.60;40.50;;;;;;10433379;28;20236;-77
2023/01/01 05:19:17;;;;;;;55.57;49.53;;;10.60;40.50;;;;;;10426058;28;20233;-77
2023/01/01 05:24:21;;;;;;;53.20;47.37;;;10.60;40.50;;;;;;10417499;28;20253;-77
2023/01/01 05:29:24;;;;;;;52.37;46.83;;;10.50;40.40;;;;;;10425802;28;20279;-77
2023/01/01 05:34:28;;;;;;;47.23;42.27;;;10.50;40.40;;;;;;10429267;28;20807;-77
2023/01/01 05:39:30;;;;;;;44.27;39.67;;;10.50;41.10;;;;;;10412798;28;20233;-77
2023/01/01 05:44:33;;;;;;;45.30;40.50;;;10.50;40.40;;;;;;10422543;28;20221;-77
2023/01/01 05:49:38;;;;;;;45.03;40.20;;;10.50;40.40;;;;;;10426579;28;20236;-77
2023/01/01 05:54:41;;;;;;;46.53;41.57;;;10.40;40.30;;;;;;10434349;28;20228;-77
2023/01/01 05:59:44;;;;;;;50.80;45.33;;;10.40;40.30;;;;;;10422051;28;20233;-77
2023/01/01 06:04:49;;;;;;;44.47;39.80;;;10.40;40.30;;;;;;10434334;28;20221;-77
2023/01/01 06:09:52;;;;;;;46.37;41.47;;;10.30;40.20;;;;;;10413451;28;20229;-77
2023/01/01 06:14:55;;;;;;;40.80;36.40;;;10.30;40.20;;;;;;10425995;28;20224;-78
2023/01/01 06:20:00;;;;;;;42.50;37.27;;;10.30;40.20;;;;;;10423902;28;20232;-77
2023/01/01 06:25:03;;;;;;;39.97;35.77;;;10.20;40.10;;;;;;10415404;28;20275;-77
2023/01/01 06:30:08;;;;;;;35.17;31.57;;;10.20;40.10;;;;;;10437472;28;20722;-77
2023/01/01 06:35:12;;;;;;;37.70;33.80;;;10.20;40.10;;;;;;10416113;28;20234;-77
2023/01/01 06:40:15;;;;;;;42.13;37.67;;;10.10;40.00;;;;;;10418804;28;20230;-77
2023/01/01 06:45:19;;;;;;;41.77;37.53;;;10.10;40.00;;;;;;10416474;28;20724;-77
2023/01/01 06:50:23;;;;;;;41.77;37.13;;;10.00;39.90;;;;;;10430604;28;20710;-77
2023/01/01 06:55:26;;;;;;;41.17;36.70;;;9.90;40.80;;;;;;10435173;28;20233;-78
2023/01/01 07:00:29;;;;;;;40.57;35.80;;;9.90;40.80;;;;;;10435918;28;20700;-78
2023/01/01 07:05:34;;;;;;;41.10;36.60;;;9.90;40.80;;;;;;10435946;28;20282;-77
2023/01/01 07:10:37;;;;;;;40.00;35.50;;;9.90;41.10;;;;;;10480148;22;20223;-68
2023/01/01 07:15:40;;;;;;;40.50;36.33;;;9.80;40.80;;;;;;10467826;28;20232;-68
2023/01/01 07:20:48;;;;;;;38.90;34.80;;;9.70;41.00;;;;;;10438256;28;20233;-68
2023/01/01 07:25:53;;;;;;;40.10;35.87;;;9.70;41.90;;;;;;10459062;22;20630;-77
2023/01/01 07:30:56;;;;;;;41.67;37.17;;;9.70;41.60;;;;;;10406572;28;20291;-77
2023/01/01 07:36:01;;;;;;;40.00;35.37;;;9.70;41.40;;;;;;10392071;28;20224;-77
2023/01/01 07:41:04;;;;;;;40.37;36.07;;;9.80;41.80;;;;;;10394633;28;21042;-77
2023/01/01 07:46:07;;;;;;;41.37;36.37;;;9.70;41.50;;;;;;10399384;28;20226;-77
2023/01/01 07:51:12;;;;;;;38.63;34.33;;;9.70;41.80;;;;;;10394945;28;20234;-77
2023/01/01 07:56:15;;;;;;;40.67;36.40;;;9.80;42.20;;;;;;10400350;28;20230;-77
2023/01/01 08:01:18;;;;;;;40.03;35.83;;;9.80;42.30;;;;;;10401688;28;20234;-77
2023/01/01 08:06:23;;;;;;;40.77;34.17;;;9.90;42.60;;;;;;10389609;28;20250;-77
2023/01/01 08:11:26;;;;;;;37.27;33.30;;;9.90;43.00;;;;;;10394968;28;20758;-78
2023/01/01 08:16:30;;;;;;;37.77;33.63;;;9.90;42.90;;;;;;10395925;28;20229;-78
2023/01/01 08:21:35;;;;;;;32.93;28.97;;;10.00;42.20;;;;;;10390778;28;20281;-78
2023/01/01 08:26:38;;;;;;;38.07;34.00;;;10.20;42.50;;;;;;10402956;28;20230;-78
2023/01/01 08:31:41;;;;;;;37.60;33.63;;;10.30;42.30;;;;;;10405675;28;20225;-78
2023/01/01 08:36:48;;;;;;;37.80;33.93;;;10.40;42.30;;;;;;10397186;28;20697;-77
2023/01/01 08:41:52;;;;;;;31.13;27.90;;;10.60;42.70;;;;;;10391691;28;20222;-78
2023/01/01 08:46:55;;;;;;;36.03;32.37;;;10.70;42.10;;;;;;10397033;28;20226;-78
2023/01/01 08:52:00;;;;;;;32.80;29.30;;;10.80;42.20;;;;;;10398076;28;20283;-78
2023/01/01 08:57:03;;;;;;;35.50;31.87;;;10.90;42.40;;;;;;10398339;28;20601;-77
2023/01/01 09:02:07;;;;;;;34.50;30.80;;;11.00;42.20;;;;;;10405173;28;20748;-77
2023/01/01 09:07:12;;;;;;;33.10;29.67;;;11.10;42.50;;;;;;10371817;28;20706;-78
2023/01/01 09:12:16;;;;;;;34.00;30.37;;;11.20;42.70;;;;;;10397684;28;20237;-78
2023/01/01 09:17:19;;;;;;;31.50;28.23;;;11.40;42.80;;;;;;10387735;28;20622;-77
2023/01/01 09:22:24;;;;;;;30.63;27.43;;;11.50;42.60;;;;;;10394731;28;20238;-78
2023/01/01 09:27:27;;;;;;;28.97;25.83;;;11.70;42.80;;;;;;10403076;28;20230;-77
2023/01/01 09:32:30;;;;;;;32.43;29.00;;;11.80;42.80;;;;;;10395402;28;20736;-77
2023/01/01 09:37:35;;;;;;;25.07;21.90;;;12.00;43.40;;;;;;10404433;28;20248;-77
2023/01/01 09:42:44;;;;;;;20.90;18.70;;;12.20;44.50;;;;;;10399543;28;20238;-78
2023/01/01 09:47:52;;;;;;;20.47;18.40;;;12.50;44.20;;;;;;10406166;28;20228;-78
2023/01/01 09:52:58;;;;;;;21.13;18.87;;;12.80;44.30;;;;;;10403809;28;20229;-78
2023/01/01 09:58:01;;;;;;;19.20;16.50;;;13.20;44.40;;;;;;10391889;28;20229;-78
2023/01/01 10:03:18;;;;;;;19.80;17.80;;;13.50;44.10;;;;;;10395662;28;20226;-77
2023/01/01 10:08:37;;;;;;;14.43;13.03;;;13.80;44.20;;;;;;10398496;28;20701;-78
2023/01/01 10:13:42;;;;;;;13.50;12.20;;;14.10;43.60;;;;;;10396584;28;20230;-78
2023/01/01 10:18:48;;;;;;;13.20;11.77;;;14.40;43.80;;;;;;10408335;28;20221;-78
2023/01/01 10:23:57;;;;;;;12.23;10.93;;;14.70;44.40;;;;;;10401755;28;20973;-78
2023/01/01 10:29:04;;;;;;;11.73;10.53;;;14.90;43.30;;;;;;10394400;28;20229;-77
2023/01/01 10:34:26;;;;;;;8.40;7.30;;;15.10;43.00;;;;;;10397919;28;20234;-77
2023/01/01 10:39:31;;;;;;;7.53;6.37;;;15.40;43.00;;;;;;10392892;28;20236;-78
2023/01/01 10:44:35;;;;;;;9.03;8.13;;;15.60;43.20;;;;;;10398888;28;20229;-77
2023/01/01 10:49:58;;;;;;;9.80;8.80;;;15.90;43.20;;;;;;10393191;28;20280;-78
2023/01/01 10:55:03;;;;;;;9.83;8.93;;;16.20;42.90;;;;;;10399958;28;20229;-78
2023/01/01 11:00:20;;;;;;;6.23;5.43;;;16.40;42.60;;;;;;10393612;28;20230;-77
2023/01/01 11:05:23;;;;;;;6.53;5.93;;;16.60;42.10;;;;;;10403008;28;20435;-78
2023/01/01 11:10:30;;;;;;;8.30;7.57;;;16.90;42.50;;;;;;10408365;28;20313;-78
2023/01/01 11:15:37;;;;;;;8.57;7.77;;;17.10;41.10;;;;;;10395788;28;20226;-78
2023/01/01 11:20:41;;;;;;;8.50;7.70;;;17.20;40.50;;;;;;10396209;28;20232;-78
2023/01/01 11:25:57;;;;;;;8.63;7.83;;;17.40;41.00;;;;;;10399259;28;20236;-78
2023/01/01 11:31:11;;;;;;;8.30;7.50;;;17.40;40.20;;;;;;10409509;28;20225;-78
2023/01/01 11:36:22;;;;;;;7.80;7.00;;;17.50;39.90;;;;;;10400268;28;20248;-77
2023/01/01 11:41:27;;;;;;;7.37;6.77;;;17.50;39.40;;;;;;10408871;28;20230;-77
2023/01/01 11:46:30;;;;;;;7.23;6.53;;;17.60;40.00;;;;;;10406813;28;20226;-77
2023/01/01 11:51:34;;;;;;;7.87;7.13;;;17.60;40.00;;;;;;10399348;28;20222;-77
2023/01/01 11:56:39;;;;;;;9.80;8.13;;;17.60;39.90;;;;;;10408049;28;20237;-78
2023/01/01 12:01:46;;;;;;;9.20;7.93;;;17.70;39.60;;;;;;10403182;28;20269;-78
2023/01/01 12:06:55;;;;;;;7.47;6.77;;;17.80;39.40;;;;;;10405535;28;20716;-77
2023/01/01 12:12:06;;;;;;;6.57;5.97;;;17.90;39.40;;;;;;10397210;28;20237;-78
2023/01/01 12:17:18;;;;;;;7.00;6.00;;;18.00;39.10;;;;;;10407786;28;20699;-78
2023/01/01 12:22:21;;;;;;;5.80;5.30;;;18.10;39.10;;;;;;10402938;28;20237;-78
2023/01/01 12:27:46;;;;;;;9.07;8.33;;;18.20;39.70;;;;;;10401585;28;20234;-78
2023/01/01 12:33:07;;;;;;;6.50;5.90;;;18.30;38.20;;;;;;10407635;28;20222;-78
2023/01/01 12:38:21;;;;;;;5.93;5.40;;;18.50;38.40;;;;;;10399742;28;20767;-77
2023/01/01 12:43:35;;;;;;;5.90;5.40;;;18.50;38.10;;;;;;10400783;28;20685;-78
2023/01/01 12:48:52;;;;;;;5.10;4.60;;;18.60;38.30;;;;;;10397311;28;20237;-78
2023/01/01 12:54:17;;;;;;;4.60;4.20;;;18.70;38.20;;;;;;10402321;28;20228;-78
2023/01/01 12:59:26;;;;;;;5.67;4.93;;;18.80;37.80;;;;;;10404962;28;20222;-78
2023/01/01 13:04:30;;;;;;;4.77;4.10;;;18.80;37.30;;;;;;10384658;28;20883;-78
2023/01/01 13:09:37;;;;;;;5.57;4.80;;;18.80;38.20;;;;;;10400213;28;20808;-78
2023/01/01 13:14:43;;;;;;;5.27;4.50;;;18.90;37.80;;;;;;10403258;28;20221;-78
2023/01/01 13:19:48;;;;;;;4.63;4.20;;;18.90;37.70;;;;;;10396291;28;20740;-78
2023/01/01 13:25:04;;;;;;;4.93;4.53;;;18.90;38.00;;;;;;10430915;22;20229;-72
2023/01/01 13:30:48;;;;;;;5.53;4.57;;;19.00;37.00;;;;;;10403900;28;20256;-72
2023/01/01 13:36:28;;;;;;;4.57;4.17;;;19.00;37.50;;;;;;10400390;28;20244;-72
2023/01/01 13:41:39;;;;;;;4.60;4.20;;;19.10;37.50;;;;;;10386069;28;20257;-72
2023/01/01 13:46:57;;;;;;;4.97;4.47;;;19.00;37.20;;;;;;10408465;28;20234;-72
2023/01/01 13:52:34;;;;;;;5.07;4.40;;;19.00;37.20;;;;;;10395986;28;20226;-72
2023/01/01 13:58:11;;;;;;;4.90;4.50;;;19.00;37.40;;;;;;10397630;28;20723;-72
2023/01/01 14:03:17;;;;;;;4.67;4.27;;;19.00;36.90;;;;;;10397709;28;20240;-72
2023/01/01 14:08:32;;;;;;;4.73;4.33;;;19.00;36.90;;;;;;10401038;28;20240;-72
2023/01/01 14:13:40;;;;;;;5.93;5.00;;;19.00;36.00;;;;;;10405500;28;20814;-72
2023/01/01 14:18:48;;;;;;;5.17;4.47;;;19.00;36.20;;;;;;10400702;28;20609;-72
2023/01/01 14:23:55;;;;;;;5.07;4.57;;;19.00;36.70;;;;;;10396336;28;20245;-72
2023/01/01 14:28:59;;;;;;;5.20;4.70;;;19.00;36.70;;;;;;10397691;28;20833;-72
2023/01/01 14:34:15;;;;;;;4.90;4.30;;;19.00;37.00;;;;;;10395074;28;20230;-72
2023/01/01 14:39:25;;;;;;;4.93;4.43;;;19.00;36.00;;;;;;10396035;28;20232;-72
2023/01/01 14:44:35;;;;;;;4.73;4.33;;;19.00;36.20;;;;;;10396350;28;20257;-72
2023/01/01 14:49:40;;;;;;;4.90;4.40;;;19.00;36.40;;;;;;10393001;28;20226;-72
2023/01/01 14:54:44;;;;;;;4.73;4.23;;;19.00;36.60;;;;;;10397892;28;20830;-72
2023/01/01 14:59:53;;;;;;;6.10;5.50;;;18.90;36.70;;;;;;10404947;28;20736;-72
2023/01/01 15:04:58;;;;;;;5.90;5.27;;;18.80;36.60;;;;;;10401062;28;21711;-72
2023/01/01 15:10:02;;;;;;;7.97;7.17;;;18.70;36.50;;;;;;10395817;28;20229;-72
2023/01/01 15:15:27;;;;;;;10.97;9.40;;;18.60;37.60;;;;;;10393911;28;20227;-72
2023/01/01 15:20:32;;;;;;;8.60;7.67;;;18.50;36.90;;;;;;10398137;28;20229;-72
2023/01/01 15:25:37;;;;;;;8.87;7.80;;;18.30;36.50;;;;;;10398614;28;20237;-72
2023/01/01 15:30:40;;;;;;;8.50;7.37;;;18.20;36.70;;;;;;10393139;28;20237;-72
2023/01/01 15:35:49;;;;;;;7.83;6.97;;;18.10;36.80;;;;;;10400534;28;20225;-72
2023/01/01 15:40:52;;;;;;;7.80;6.93;;;17.90;36.50;;;;;;10400074;28;20230;-72
2023/01/01 15:45:58;;;;;;;8.30;5.93;;;17.70;37.40;;;;;;10393853;28;20715;-72
2023/01/01 15:51:12;;;;;;;9.37;7.60;;;17.60;36.70;;;;;;10402664;28;20226;-72
2023/01/01 15:56:17;;;;;;;18.50;12.20;;;17.40;36.50;;;;;;10398982;28;20607;-72
2023/01/01 16:01:22;;;;;;;18.97;15.67;;;17.30;36.70;;;;;;10404931;28;20228;-72
2023/01/01 16:06:27;;;;;;;20.40;18.13;;;17.10;36.70;;;;;;10400081;28;20238;-72
2023/01/01 16:11:30;;;;;;;21.40;19.30;;;17.00;36.60;;;;;;10409176;28;20235;-72
2023/01/01 16:16:34;;;;;;;15.63;14.13;;;16.80;36.50;;;;;;10401684;28;20236;-72
2023/01/01 16:21:39;;;;;;;13.43;12.20;;;16.70;36.90;;;;;;10399659;28;20317;-72
2023/01/01 16:26:42;;;;;;;12.70;11.40;;;16.50;36.80;;;;;;10395302;28;20621;-72
2023/01/01 16:31:47;;;;;;;11.13;10.03;;;16.40;36.80;;;;;;10402713;28;20238;-72
2023/01/01 16:36:51;;;;;;;9.57;8.37;;;16.30;36.80;;;;;;10397185;28;20242;-72
2023/01/01 16:41:57;;;;;;;10.10;9.10;;;16.10;36.70;;;;;;10397796;28;20942;-72
2023/01/01 16:47:00;;;;;;;11.40;10.30;;;16.00;36.90;;;;;;10410348;28;20234;-72
2023/01/01 16:52:05;;;;;;;11.57;10.37;;;15.90;36.90;;;;;;10411656;28;20221;-72
2023/01/01 16:57:08;;;;;;;11.83;10.63;;;15.70;36.90;;;;;;10403685;28;20233;-72
2023/01/01 17:02:11;;;;;;;13.90;12.23;;;15.50;37.60;;;;;;10398564;28;20226;-72
2023/01/01 17:07:15;;;;;;;13.10;11.80;;;15.30;36.90;;;;;;10406751;28;20237;-72
2023/01/01 17:12:19;;;;;;;9.90;9.00;;;15.10;37.10;;;;;;10397596;28;20214;-72
2023/01/01 17:17:22;;;;;;;9.37;8.47;;;14.90;37.10;;;;;;10396480;28;20239;-72
2023/01/01 17:22:26;;;;;;;10.63;9.57;;;14.90;37.20;;;;;;10399282;28;20237;-72
2023/01/01 17:27:36;;;;;;;14.33;12.93;;;14.70;37.20;;;;;;10406125;28;20249;-72
2023/01/01 17:32:39;;;;;;;12.47;11.13;;;14.60;37.20;;;;;;10401639;28;20735;-72
2023/01/01 17:37:43;;;;;;;18.93;15.23;;;14.60;37.30;;;;;;10399422;28;20237;-72
2023/01/01 17:42:46;;;;;;;25.07;20.93;;;14.50;37.30;;;;;;10402406;28;20234;-72
2023/01/01 17:47:49;;;;;;;17.20;15.17;;;14.40;37.40;;;;;;10396002;28;20237;-72
2023/01/01 17:52:54;;;;;;;20.60;18.17;;;14.30;37.50;;;;;;10399518;28;20606;-72
2023/01/01 17:57:57;;;;;;;26.03;23.20;;;14.20;37.60;;;;;;10395496;28;20715;-72
2023/01/01 18:03:00;;;;;;;18.73;16.73;;;14.10;37.50;;;;;;10402845;28;20241;-72
2023/01/01 18:08:05;;;;;;;17.17;15.37;;;13.90;37.40;;;;;;10408123;28;20254;-72
2023/01/01 18:13:08;;;;;;;12.30;11.10;;;13.80;37.80;;;;;;10394735;28;21009;-72
2023/01/01 18:18:12;;;;;;;12.63;11.27;;;13.60;38.40;;;;;;10399792;28;20259;-72
2023/01/01 18:23:16;;;;;;;15.80;14.10;;;13.50;37.80;;;;;;10398082;28;20238;-72
2023/01/01 18:28:19;;;;;;;14.47;12.97;;;13.40;38.20;;;;;;10397188;28;20704;-72
2023/01/01 18:33:22;;;;;;;16.77;15.03;;;13.30;38.10;;;;;;10395994;28;20232;-72
2023/01/01 18:38:27;;;;;;;24.27;21.77;;;13.20;38.10;;;;;;10400279;28;20229;-72
2023/01/01 18:43:30;;;;;;;24.17;20.03;;;13.10;38.20;;;;;;10393640;28;20245;-72
2023/01/01 18:48:33;;;;;;;13.17;11.63;;;13.00;37.90;;;;;;10403857;28;20249;-72
2023/01/01 18:53:37;;;;;;;82.70;67.93;;;13.00;38.00;;;;;;10389222;28;20591;-72
2023/01/01 18:58:41;;;;;;;31.40;26.00;;;12.80;38.10;;;;;;10398595;28;20230;-72
2023/01/01 19:03:46;;;;;;;21.27;17.93;;;12.70;38.10;;;;;;10400666;28;20656;-72
2023/01/01 19:08:51;;;;;;;16.07;14.10;;;12.70;38.30;;;;;;10397038;28;20225;-72
2023/01/01 19:14:02;;;;;;;12.37;11.07;;;12.60;38.30;;;;;;10397991;28;20221;-72
2023/01/01 19:19:15;;;;;;;12.13;10.83;;;12.60;38.40;;;;;;10404472;28;20225;-72
2023/01/01 19:24:22;;;;;;;12.83;11.60;;;12.60;38.60;;;;;;10406909;28;20596;-72
2023/01/01 19:29:29;;;;;;;16.80;14.63;;;12.50;38.30;;;;;;10400243;28;20275;-72
2023/01/01 19:34:35;;;;;;;13.57;11.77;;;12.50;38.70;;;;;;10396310;28;20236;-72
2023/01/01 19:39:40;;;;;;;17.13;15.33;;;12.40;38.30;;;;;;10403704;28;20979;-72
2023/01/01 19:44:43;;;;;;;24.57;18.70;;;12.30;38.40;;;;;;10402598;28;20719;-72
2023/01/01 19:49:46;;;;;;;96.73;87.23;;;12.20;38.20;;;;;;10402787;28;20225;-72
2023/01/01 19:54:58;;;;;;;52.30;47.47;;;12.20;38.30;;;;;;10401181;28;20320;-72
2023/01/01 20:00:01;;;;;;;21.37;19.37;;;12.00;38.50;;;;;;10401492;28;20638;-72
2023/01/01 20:05:06;;;;;;;12.57;11.27;;;11.90;38.50;;;;;;10405940;28;20244;-72
2023/01/01 20:10:11;;;;;;;9.87;8.97;;;11.90;38.80;;;;;;10400078;28;20677;-72
2023/01/01 20:15:15;;;;;;;11.20;8.70;;;11.80;38.80;;;;;;10398502;28;20723;-72
2023/01/01 20:20:18;;;;;;;12.97;10.70;;;11.80;38.70;;;;;;10401373;28;20221;-72
2023/01/01 20:25:23;;;;;;;17.03;13.67;;;11.80;38.80;;;;;;10404832;28;20234;-73
2023/01/01 20:30:26;;;;;;;12.53;10.13;;;11.80;38.80;;;;;;10401483;28;20713;-72
2023/01/01 20:40:53;;;;;;;11.90;10.50;;;11.80;38.70;;;;;;10401085;28;20230;-72
2023/01/01 20:45:57;;;;;;;14.83;12.23;;;11.80;38.80;;;;;;10408975;28;20240;-72
2023/01/01 20:51:00;;;;;;;18.37;16.77;;;11.80;38.80;;;;;;10400721;28;20320;-72
2023/01/01 20:56:05;;;;;;;11.93;10.83;;;11.80;38.80;;;;;;10406648;28;20230;-72
2023/01/01 21:01:08;;;;;;;9.20;8.30;;;11.80;38.90;;;;;;10406524;28;20237;-72
2023/01/01 21:06:11;;;;;;;7.80;7.07;;;11.80;38.90;;;;;;10397740;28;20737;-72
2023/01/01 21:11:21;;;;;;;6.07;5.47;;;11.80;39.00;;;;;;10399795;28;20232;-72
2023/01/01 21:16:27;;;;;;;5.70;5.17;;;11.80;39.20;;;;;;10406228;28;20241;-72
2023/01/01 21:21:35;;;;;;;5.57;4.83;;;11.80;39.90;;;;;;10400371;28;20242;-72
2023/01/01 21:26:40;;;;;;;5.33;4.83;;;11.80;39.30;;;;;;10400741;28;20237;-72
2023/01/01 21:31:43;;;;;;;4.90;4.40;;;11.90;39.60;;;;;;10404750;28;20225;-72
2023/01/01 21:36:46;;;;;;;4.90;4.50;;;11.90;39.30;;;;;;10402052;28;20574;-72
2023/01/01 21:41:51;;;;;;;5.03;4.60;;;11.90;39.30;;;;;;10398288;28;20570;-72
2023/01/01 21:46:56;;;;;;;4.97;4.43;;;12.00;39.30;;;;;;10394583;28;20927;-72
2023/01/01 21:52:17;;;;;;;4.77;4.37;;;12.00;39.00;;;;;;10396850;28;20222;-72
2023/01/01 21:57:24;;;;;;;5.13;4.63;;;11.90;39.20;;;;;;10401350;28;20241;-72
2023/01/01 22:02:36;;;;;;;5.60;5.00;;;11.90;39.00;;;;;;10400207;28;20229;-72
2023/01/01 22:07:40;;;;;;;8.00;6.30;;;11.90;39.10;;;;;;10404696;28;20233;-72
2023/01/01 22:13:02;;;;;;;7.10;5.60;;;11.80;38.70;;;;;;10407114;28;20226;-72
2023/01/01 22:18:25;;;;;;;6.73;5.87;;;11.70;38.90;;;;;;10397531;28;20747;-72
2023/01/01 22:23:38;;;;;;;6.50;5.87;;;11.60;39.30;;;;;;10394318;28;20328;-72
2023/01/01 22:28:44;;;;;;;8.23;7.43;;;11.60;39.30;;;;;;10408620;28;20225;-72
2023/01/01 22:33:48;;;;;;;8.83;7.10;;;11.50;39.00;;;;;;10394020;28;20221;-72
2023/01/01 22:38:54;;;;;;;7.80;7.00;;;11.50;38.90;;;;;;10391321;28;20233;-72
2023/01/01 22:44:01;;;;;;;6.97;6.37;;;11.40;39.10;;;;;;10392796;28;20233;-72
2023/01/01 22:49:15;;;;;;;6.90;6.27;;;11.40;39.10;;;;;;10397359;28;20225;-72
2023/01/01 22:54:18;;;;;;;5.80;5.30;;;11.40;39.10;;;;;;10399416;28;20226;-72
2023/01/01 22:59:22;;;;;;;6.93;6.23;;;11.40;38.90;;;;;;10397714;28;20228;-72
2023/01/01 23:04:26;;;;;;;6.93;6.33;;;11.40;39.00;;;;;;10394321;28;20243;-72
2023/01/01 23:09:29;;;;;;;6.80;6.20;;;11.40;39.00;;;;;;10398271;28;20226;-72
2023/01/01 23:19:57;;;;;;;7.13;6.07;;;11.30;38.90;;;;;;10382834;28;20237;-72
2023/01/01 23:25:00;;;;;;;6.87;6.17;;;11.20;38.70;;;;;;10405683;28;20230;-72
2023/01/01 23:30:06;;;;;;;12.20;9.53;;;11.10;38.80;;;;;;10401404;28;20230;-72
2023/01/01 23:35:10;;;;;;;11.87;9.53;;;11.00;39.00;;;;;;10385836;28;20276;-72
2023/01/01 23:40:13;;;;;;;10.53;9.07;;;11.00;39.00;;;;;;10399507;28;20225;-72
2023/01/01 23:45:18;;;;;;;26.27;15.63;;;10.90;38.80;;;;;;10399327;28;20757;-72
2023/01/01 23:50:21;;;;;;;18.67;11.87;;;10.80;38.90;;;;;;10387026;28;20610;-72
2023/01/01 23:55:25;;;;;;;19.30;12.73;;;10.80;39.00;;;;;;10391351;28;20229;-72
